sensor_id;sensor_type;location;lat;lon;timestamp;temperature;humidity
24470;DHT22;12635;50.852;5.676;2023-06-10T00:01:16;18.50;99.90
24470;DHT22;12635;50.852;5.676;2023-06-10T00:03:44;18.40;99.90
24470;DHT22;12635;50.852;5.676;2023-06-10T00:06:11;18.20;99.90
24470;DHT22;12635;50.852;5.676;2023-06-10T00:08:37;18.40;99.90
24470;DHT22;12635;50.852;5.676;2023-06-10T00:11:05;18.50;99.90
24470;DHT22;12635;50.852;5.676;2023-06-10T00:13:32;18.40;99.90
24470;DHT22;12635;50.852;5.676;2023-06-10T00:16:00;18.20;99.90
24470;DHT22;12635;50.852;5.676;2023-06-10T00:18:27;18.50;99.90
24470;DHT22;12635;50.852;5.676;2023-06-10T00:20:56;18.40;99.90
24470;DHT22;12635;50.852;5.676;2023-06-10T00:23:28;18.50;99.90
24470;DHT22;12635;50.852;5.676;2023-06-10T00:25:56;18.50;99.90
24470;DHT22;12635;50.852;5.676;2023-06-10T00:28:23;18.40;99.90
24470;DHT22;12635;50.852;5.676;2023-06-10T00:30:50;18.30;99.90
24470;DHT22;12635;50.852;5.676;2023-06-10T00:33:18;18.20;99.90
24470;DHT22;12635;50.852;5.676;2023-06-10T00:35:45;18.20;99.90
24470;DHT22;12635;50.852;5.676;2023-06-10T00:38:12;18.20;99.90
24470;DHT22;12635;50.852;5.676;2023-06-10T00:40:39;18.20;99.90
24470;DHT22;12635;50.852;5.676;2023-06-10T00:43:06;17.90;99.90
24470;DHT22;12635;50.852;5.676;2023-06-10T00:45:33;18.00;99.90
24470;DHT22;12635;50.852;5.676;2023-06-10T00:48:00;17.90;99.90
24470;DHT22;12635;50.852;5.676;2023-06-10T00:50:29;18.00;99.90
24470;DHT22;12635;50.852;5.676;2023-06-10T00:52:56;18.00;99.90
24470;DHT22;12635;50.852;5.676;2023-06-10T00:55:23;17.90;99.90
24470;DHT22;12635;50.852;5.676;2023-06-10T00:57:52;17.90;99.90
24470;DHT22;12635;50.852;5.676;2023-06-10T01:00:19;17.90;99.90
24470;DHT22;12635;50.852;5.676;2023-06-10T01:02:47;17.80;99.90
24470;DHT22;12635;50.852;5.676;2023-06-10T01:05:14;17.60;99.90
24470;DHT22;12635;50.852;5.676;2023-06-10T01:07:45;17.50;99.90
24470;DHT22;12635;50.852;5.676;2023-06-10T01:10:17;17.50;99.90
24470;DHT22;12635;50.852;5.676;2023-06-10T01:12:49;17.50;99.90
24470;DHT22;12635;50.852;5.676;2023-06-10T01:15:17;17.50;99.90
24470;DHT22;12635;50.852;5.676;2023-06-10T01:17:54;17.30;99.90
24470;DHT22;12635;50.852;5.676;2023-06-10T01:20:22;17.20;99.90
24470;DHT22;12635;50.852;5.676;2023-06-10T01:22:51;17.10;99.90
24470;DHT22;12635;50.852;5.676;2023-06-10T01:25:19;17.30;99.90
24470;DHT22;12635;50.852;5.676;2023-06-10T01:27:53;17.10;99.90
24470;DHT22;12635;50.852;5.676;2023-06-10T01:30:22;17.20;99.90
24470;DHT22;12635;50.852;5.676;2023-06-10T01:32:55;17.00;99.90
24470;DHT22;12635;50.852;5.676;2023-06-10T01:35:24;16.90;99.90
24470;DHT22;12635;50.852;5.676;2023-06-10T01:37:53;16.90;99.90
24470;DHT22;12635;50.852;5.676;2023-06-10T01:40:20;16.80;99.90
24470;DHT22;12635;50.852;5.676;2023-06-10T01:42:47;16.60;99.90
24470;DHT22;12635;50.852;5.676;2023-06-10T01:45:14;16.60;99.90
24470;DHT22;12635;50.852;5.676;2023-06-10T01:47:41;16.50;99.90
24470;DHT22;12635;50.852;5.676;2023-06-10T01:50:08;16.40;99.90
24470;DHT22;12635;50.852;5.676;2023-06-10T01:52:37;16.30;99.90
24470;DHT22;12635;50.852;5.676;2023-06-10T01:55:05;16.30;99.90
24470;DHT22;12635;50.852;5.676;2023-06-10T01:57:32;16.30;99.90
24470;DHT22;12635;50.852;5.676;2023-06-10T01:59:59;16.20;99.90
24470;DHT22;12635;50.852;5.676;2023-06-10T02:02:26;16.10;99.90
24470;DHT22;12635;50.852;5.676;2023-06-10T02:04:53;16.10;99.90
24470;DHT22;12635;50.852;5.676;2023-06-10T02:07:20;16.10;99.90
24470;DHT22;12635;50.852;5.676;2023-06-10T02:09:47;16.00;99.90
24470;DHT22;12635;50.852;5.676;2023-06-10T02:12:15;15.90;99.90
24470;DHT22;12635;50.852;5.676;2023-06-10T02:14:42;15.90;99.90
24470;DHT22;12635;50.852;5.676;2023-06-10T02:17:09;16.00;99.90
24470;DHT22;12635;50.852;5.676;2023-06-10T02:19:38;16.00;99.90
24470;DHT22;12635;50.852;5.676;2023-06-10T02:22:08;16.00;99.90
24470;DHT22;12635;50.852;5.676;2023-06-10T02:24:35;16.20;99.90
24470;DHT22;12635;50.852;5.676;2023-06-10T02:27:03;16.40;99.90
24470;DHT22;12635;50.852;5.676;2023-06-10T02:29:33;16.30;99.90
24470;DHT22;12635;50.852;5.676;2023-06-10T02:32:01;16.30;99.90
24470;DHT22;12635;50.852;5.676;2023-06-10T02:34:28;16.20;99.90
24470;DHT22;12635;50.852;5.676;2023-06-10T02:36:55;16.30;99.90
24470;DHT22;12635;50.852;5.676;2023-06-10T02:39:22;16.40;99.90
24470;DHT22;12635;50.852;5.676;2023-06-10T02:41:49;16.30;99.90
24470;DHT22;12635;50.852;5.676;2023-06-10T02:44:17;16.30;99.90
24470;DHT22;12635;50.852;5.676;2023-06-10T02:46:46;16.20;99.90
24470;DHT22;12635;50.852;5.676;2023-06-10T02:49:13;16.20;99.90
24470;DHT22;12635;50.852;5.676;2023-06-10T02:51:39;16.10;99.90
24470;DHT22;12635;50.852;5.676;2023-06-10T02:54:06;16.40;99.90
24470;DHT22;12635;50.852;5.676;2023-06-10T02:56:33;16.40;99.90
24470;DHT22;12635;50.852;5.676;2023-06-10T02:59:00;16.40;99.90
24470;DHT22;12635;50.852;5.676;2023-06-10T03:01:27;16.40;99.90
24470;DHT22;12635;50.852;5.676;2023-06-10T03:03:58;16.40;99.90
24470;DHT22;12635;50.852;5.676;2023-06-10T03:06:25;16.40;99.90
24470;DHT22;12635;50.852;5.676;2023-06-10T03:08:52;16.30;99.90
24470;DHT22;12635;50.852;5.676;2023-06-10T03:11:18;16.10;99.90
24470;DHT22;12635;50.852;5.676;2023-06-10T03:13:46;16.10;99.90
24470;DHT22;12635;50.852;5.676;2023-06-10T03:16:12;16.00;99.90
24470;DHT22;12635;50.852;5.676;2023-06-10T03:18:39;15.80;99.90
24470;DHT22;12635;50.852;5.676;2023-06-10T03:21:07;15.70;99.90
24470;DHT22;12635;50.852;5.676;2023-06-10T03:23:35;15.70;99.90
24470;DHT22;12635;50.852;5.676;2023-06-10T03:26:02;15.60;99.90
24470;DHT22;12635;50.852;5.676;2023-06-10T03:28:30;15.50;99.90
24470;DHT22;12635;50.852;5.676;2023-06-10T03:30:57;15.60;99.90
24470;DHT22;12635;50.852;5.676;2023-06-10T03:33:24;15.80;99.90
24470;DHT22;12635;50.852;5.676;2023-06-10T03:35:51;15.90;99.90
24470;DHT22;12635;50.852;5.676;2023-06-10T03:38:19;15.80;99.90
24470;DHT22;12635;50.852;5.676;2023-06-10T03:40:46;15.90;99.90
24470;DHT22;12635;50.852;5.676;2023-06-10T03:43:13;15.70;99.90
24470;DHT22;12635;50.852;5.676;2023-06-10T03:45:40;15.60;99.90
24470;DHT22;12635;50.852;5.676;2023-06-10T03:48:07;15.60;99.90
24470;DHT22;12635;50.852;5.676;2023-06-10T03:50:34;15.70;99.90
24470;DHT22;12635;50.852;5.676;2023-06-10T03:53:01;15.80;99.90
24470;DHT22;12635;50.852;5.676;2023-06-10T03:55:29;15.90;99.90
24470;DHT22;12635;50.852;5.676;2023-06-10T03:57:56;15.90;99.90
24470;DHT22;12635;50.852;5.676;2023-06-10T04:00:23;16.00;99.90
24470;DHT22;12635;50.852;5.676;2023-06-10T04:02:50;16.00;99.90
24470;DHT22;12635;50.852;5.676;2023-06-10T04:05:17;16.00;99.90
24470;DHT22;12635;50.852;5.676;2023-06-10T04:07:46;16.00;99.90
24470;DHT22;12635;50.852;5.676;2023-06-10T04:10:14;16.00;99.90
24470;DHT22;12635;50.852;5.676;2023-06-10T04:12:42;16.00;99.90
24470;DHT22;12635;50.852;5.676;2023-06-10T04:15:09;16.10;99.90
24470;DHT22;12635;50.852;5.676;2023-06-10T04:17:37;16.20;99.90
24470;DHT22;12635;50.852;5.676;2023-06-10T04:20:04;16.40;99.90
24470;DHT22;12635;50.852;5.676;2023-06-10T04:22:33;16.60;99.90
24470;DHT22;12635;50.852;5.676;2023-06-10T04:25:00;16.70;99.90
24470;DHT22;12635;50.852;5.676;2023-06-10T04:27:27;17.00;99.90
24470;DHT22;12635;50.852;5.676;2023-06-10T04:29:55;17.30;99.90
24470;DHT22;12635;50.852;5.676;2023-06-10T04:32:22;17.80;99.90
24470;DHT22;12635;50.852;5.676;2023-06-10T04:34:49;18.10;99.90
24470;DHT22;12635;50.852;5.676;2023-06-10T04:37:16;18.50;99.90
24470;DHT22;12635;50.852;5.676;2023-06-10T04:39:43;18.70;99.90
24470;DHT22;12635;50.852;5.676;2023-06-10T04:42:10;18.70;99.90
24470;DHT22;12635;50.852;5.676;2023-06-10T04:44:37;18.80;99.90
24470;DHT22;12635;50.852;5.676;2023-06-10T04:47:05;18.80;99.90
24470;DHT22;12635;50.852;5.676;2023-06-10T04:49:33;18.80;99.90
24470;DHT22;12635;50.852;5.676;2023-06-10T04:52:00;18.80;99.90
24470;DHT22;12635;50.852;5.676;2023-06-10T04:54:29;18.90;99.90
24470;DHT22;12635;50.852;5.676;2023-06-10T04:56:58;18.80;99.90
24470;DHT22;12635;50.852;5.676;2023-06-10T04:59:24;18.90;99.90
24470;DHT22;12635;50.852;5.676;2023-06-10T05:01:52;19.00;99.90
24470;DHT22;12635;50.852;5.676;2023-06-10T05:04:20;18.90;99.90
24470;DHT22;12635;50.852;5.676;2023-06-10T05:06:47;18.80;99.90
24470;DHT22;12635;50.852;5.676;2023-06-10T05:09:13;18.70;99.90
24470;DHT22;12635;50.852;5.676;2023-06-10T05:11:40;18.60;99.90
24470;DHT22;12635;50.852;5.676;2023-06-10T05:14:07;19.00;99.90
24470;DHT22;12635;50.852;5.676;2023-06-10T05:16:34;19.50;99.90
24470;DHT22;12635;50.852;5.676;2023-06-10T05:19:01;19.60;99.90
24470;DHT22;12635;50.852;5.676;2023-06-10T05:21:30;19.60;99.90
24470;DHT22;12635;50.852;5.676;2023-06-10T05:23:56;19.40;99.90
24470;DHT22;12635;50.852;5.676;2023-06-10T05:26:23;19.50;99.90
24470;DHT22;12635;50.852;5.676;2023-06-10T05:28:50;19.50;99.90
24470;DHT22;12635;50.852;5.676;2023-06-10T05:31:18;19.50;99.90
24470;DHT22;12635;50.852;5.676;2023-06-10T05:33:44;19.50;99.90
24470;DHT22;12635;50.852;5.676;2023-06-10T05:36:11;19.50;99.90
24470;DHT22;12635;50.852;5.676;2023-06-10T05:38:39;19.60;99.90
24470;DHT22;12635;50.852;5.676;2023-06-10T05:41:06;19.70;99.90
24470;DHT22;12635;50.852;5.676;2023-06-10T05:43:33;19.80;99.90
24470;DHT22;12635;50.852;5.676;2023-06-10T05:46:00;20.10;99.90
24470;DHT22;12635;50.852;5.676;2023-06-10T05:48:27;20.90;99.90
24470;DHT22;12635;50.852;5.676;2023-06-10T05:50:54;21.80;99.90
24470;DHT22;12635;50.852;5.676;2023-06-10T05:53:21;22.80;99.90
24470;DHT22;12635;50.852;5.676;2023-06-10T05:55:49;23.50;99.90
24470;DHT22;12635;50.852;5.676;2023-06-10T05:58:16;24.40;99.90
24470;DHT22;12635;50.852;5.676;2023-06-10T06:00:43;25.00;99.90
24470;DHT22;12635;50.852;5.676;2023-06-10T06:03:10;25.40;99.90
24470;DHT22;12635;50.852;5.676;2023-06-10T06:05:37;25.90;99.90
24470;DHT22;12635;50.852;5.676;2023-06-10T06:08:04;26.20;99.90
24470;DHT22;12635;50.852;5.676;2023-06-10T06:10:31;26.50;99.90
24470;DHT22;12635;50.852;5.676;2023-06-10T06:12:59;26.40;99.90
24470;DHT22;12635;50.852;5.676;2023-06-10T06:15:26;26.50;99.90
24470;DHT22;12635;50.852;5.676;2023-06-10T06:17:53;27.20;99.90
24470;DHT22;12635;50.852;5.676;2023-06-10T06:20:21;27.70;99.90
24470;DHT22;12635;50.852;5.676;2023-06-10T06:22:48;28.00;99.90
24470;DHT22;12635;50.852;5.676;2023-06-10T06:25:15;28.90;99.90
24470;DHT22;12635;50.852;5.676;2023-06-10T06:27:42;29.70;99.90
24470;DHT22;12635;50.852;5.676;2023-06-10T06:30:10;29.90;99.90
24470;DHT22;12635;50.852;5.676;2023-06-10T06:32:37;30.20;99.90
24470;DHT22;12635;50.852;5.676;2023-06-10T06:35:04;30.20;99.90
24470;DHT22;12635;50.852;5.676;2023-06-10T06:37:33;30.20;99.90
24470;DHT22;12635;50.852;5.676;2023-06-10T06:40:00;31.00;99.90
24470;DHT22;12635;50.852;5.676;2023-06-10T06:42:27;30.60;99.90
24470;DHT22;12635;50.852;5.676;2023-06-10T06:44:54;30.00;99.90
24470;DHT22;12635;50.852;5.676;2023-06-10T06:47:22;29.20;99.90
24470;DHT22;12635;50.852;5.676;2023-06-10T06:49:49;28.10;99.90
24470;DHT22;12635;50.852;5.676;2023-06-10T06:52:17;27.90;99.90
24470;DHT22;12635;50.852;5.676;2023-06-10T06:54:44;27.30;99.90
24470;DHT22;12635;50.852;5.676;2023-06-10T06:57:11;27.40;99.90
24470;DHT22;12635;50.852;5.676;2023-06-10T06:59:38;28.30;99.90
24470;DHT22;12635;50.852;5.676;2023-06-10T07:02:05;28.90;99.90
24470;DHT22;12635;50.852;5.676;2023-06-10T07:04:33;30.00;99.90
24470;DHT22;12635;50.852;5.676;2023-06-10T07:07:00;31.50;99.90
24470;DHT22;12635;50.852;5.676;2023-06-10T07:09:27;32.40;99.90
24470;DHT22;12635;50.852;5.676;2023-06-10T07:11:54;33.50;99.90
24470;DHT22;12635;50.852;5.676;2023-06-10T07:14:20;33.20;99.90
24470;DHT22;12635;50.852;5.676;2023-06-10T07:16:47;30.90;99.90
24470;DHT22;12635;50.852;5.676;2023-06-10T07:19:15;31.00;99.90
24470;DHT22;12635;50.852;5.676;2023-06-10T07:21:43;32.10;99.90
24470;DHT22;12635;50.852;5.676;2023-06-10T07:24:10;30.30;99.90
24470;DHT22;12635;50.852;5.676;2023-06-10T07:26:37;30.30;99.90
24470;DHT22;12635;50.852;5.676;2023-06-10T07:29:04;32.00;99.90
24470;DHT22;12635;50.852;5.676;2023-06-10T07:31:30;32.40;99.90
24470;DHT22;12635;50.852;5.676;2023-06-10T07:33:57;32.00;99.90
24470;DHT22;12635;50.852;5.676;2023-06-10T07:36:24;31.10;99.90
24470;DHT22;12635;50.852;5.676;2023-06-10T07:38:54;30.20;99.90
24470;DHT22;12635;50.852;5.676;2023-06-10T07:41:22;29.40;99.90
24470;DHT22;12635;50.852;5.676;2023-06-10T07:43:50;30.00;99.90
24470;DHT22;12635;50.852;5.676;2023-06-10T07:46:20;30.10;99.90
24470;DHT22;12635;50.852;5.676;2023-06-10T07:48:47;30.90;99.90
24470;DHT22;12635;50.852;5.676;2023-06-10T07:51:14;31.20;99.90
24470;DHT22;12635;50.852;5.676;2023-06-10T07:53:41;31.20;99.90
24470;DHT22;12635;50.852;5.676;2023-06-10T07:56:10;31.90;99.90
24470;DHT22;12635;50.852;5.676;2023-06-10T07:58:36;31.20;99.90
24470;DHT22;12635;50.852;5.676;2023-06-10T08:01:03;32.10;99.90
24470;DHT22;12635;50.852;5.676;2023-06-10T08:03:30;31.10;99.90
24470;DHT22;12635;50.852;5.676;2023-06-10T08:05:57;30.80;99.90
24470;DHT22;12635;50.852;5.676;2023-06-10T08:08:24;31.30;99.90
24470;DHT22;12635;50.852;5.676;2023-06-10T08:10:51;32.60;99.90
24470;DHT22;12635;50.852;5.676;2023-06-10T08:13:19;33.70;99.90
24470;DHT22;12635;50.852;5.676;2023-06-10T08:15:47;32.00;99.90
24470;DHT22;12635;50.852;5.676;2023-06-10T08:18:16;30.70;99.90
24470;DHT22;12635;50.852;5.676;2023-06-10T08:20:42;31.00;99.90
24470;DHT22;12635;50.852;5.676;2023-06-10T08:23:09;31.00;99.90
24470;DHT22;12635;50.852;5.676;2023-06-10T08:25:36;30.90;99.90
24470;DHT22;12635;50.852;5.676;2023-06-10T08:28:03;32.60;99.90
24470;DHT22;12635;50.852;5.676;2023-06-10T08:30:31;32.40;99.90
24470;DHT22;12635;50.852;5.676;2023-06-10T08:32:59;32.60;99.90
24470;DHT22;12635;50.852;5.676;2023-06-10T08:35:26;32.20;99.90
24470;DHT22;12635;50.852;5.676;2023-06-10T08:37:53;32.80;99.90
24470;DHT22;12635;50.852;5.676;2023-06-10T08:40:20;31.40;99.90
24470;DHT22;12635;50.852;5.676;2023-06-10T08:42:48;31.20;99.90
24470;DHT22;12635;50.852;5.676;2023-06-10T08:45:16;33.00;99.90
24470;DHT22;12635;50.852;5.676;2023-06-10T08:47:45;34.60;99.90
24470;DHT22;12635;50.852;5.676;2023-06-10T08:50:12;32.90;99.90
24470;DHT22;12635;50.852;5.676;2023-06-10T08:52:42;32.10;99.90
24470;DHT22;12635;50.852;5.676;2023-06-10T08:55:10;33.80;99.90
24470;DHT22;12635;50.852;5.676;2023-06-10T08:57:37;32.50;99.90
24470;DHT22;12635;50.852;5.676;2023-06-10T09:00:05;32.20;99.90
24470;DHT22;12635;50.852;5.676;2023-06-10T09:02:32;32.20;99.90
24470;DHT22;12635;50.852;5.676;2023-06-10T09:05:02;32.50;99.90
24470;DHT22;12635;50.852;5.676;2023-06-10T09:07:29;31.60;99.90
24470;DHT22;12635;50.852;5.676;2023-06-10T09:09:59;32.90;99.90
24470;DHT22;12635;50.852;5.676;2023-06-10T09:12:28;34.30;99.90
24470;DHT22;12635;50.852;5.676;2023-06-10T09:14:55;31.90;99.90
24470;DHT22;12635;50.852;5.676;2023-06-10T09:17:22;32.70;99.90
24470;DHT22;12635;50.852;5.676;2023-06-10T09:19:49;33.80;99.90
24470;DHT22;12635;50.852;5.676;2023-06-10T09:22:20;33.60;99.90
24470;DHT22;12635;50.852;5.676;2023-06-10T09:24:47;34.30;99.90
24470;DHT22;12635;50.852;5.676;2023-06-10T09:27:14;34.90;99.90
24470;DHT22;12635;50.852;5.676;2023-06-10T09:29:47;35.60;99.90
24470;DHT22;12635;50.852;5.676;2023-06-10T09:32:14;34.80;99.90
24470;DHT22;12635;50.852;5.676;2023-06-10T09:34:41;33.70;99.90
24470;DHT22;12635;50.852;5.676;2023-06-10T09:37:10;33.60;99.90
24470;DHT22;12635;50.852;5.676;2023-06-10T09:39:40;34.10;99.90
24470;DHT22;12635;50.852;5.676;2023-06-10T09:42:15;34.80;99.90
24470;DHT22;12635;50.852;5.676;2023-06-10T09:44:42;35.70;99.90
24470;DHT22;12635;50.852;5.676;2023-06-10T09:47:19;36.50;99.90
24470;DHT22;12635;50.852;5.676;2023-06-10T09:49:46;34.30;99.90
24470;DHT22;12635;50.852;5.676;2023-06-10T09:52:13;34.90;99.90
24470;DHT22;12635;50.852;5.676;2023-06-10T09:54:41;35.80;99.90
24470;DHT22;12635;50.852;5.676;2023-06-10T09:57:10;36.00;99.90
24470;DHT22;12635;50.852;5.676;2023-06-10T09:59:38;35.20;99.90
24470;DHT22;12635;50.852;5.676;2023-06-10T10:02:05;35.90;99.90
24470;DHT22;12635;50.852;5.676;2023-06-10T10:04:32;36.30;99.90
24470;DHT22;12635;50.852;5.676;2023-06-10T10:07:01;35.50;99.90
24470;DHT22;12635;50.852;5.676;2023-06-10T10:09:27;35.60;99.90
24470;DHT22;12635;50.852;5.676;2023-06-10T10:11:56;34.60;99.90
24470;DHT22;12635;50.852;5.676;2023-06-10T10:14:23;33.40;99.90
24470;DHT22;12635;50.852;5.676;2023-06-10T10:16:50;33.20;99.90
24470;DHT22;12635;50.852;5.676;2023-06-10T10:19:20;33.00;99.90
24470;DHT22;12635;50.852;5.676;2023-06-10T10:21:49;33.10;99.90
24470;DHT22;12635;50.852;5.676;2023-06-10T10:24:18;32.60;99.90
24470;DHT22;12635;50.852;5.676;2023-06-10T10:26:45;31.80;99.90
24470;DHT22;12635;50.852;5.676;2023-06-10T10:29:16;32.90;99.90
24470;DHT22;12635;50.852;5.676;2023-06-10T10:31:43;33.30;99.90
24470;DHT22;12635;50.852;5.676;2023-06-10T10:34:12;34.30;99.90
24470;DHT22;12635;50.852;5.676;2023-06-10T10:36:40;35.10;99.90
24470;DHT22;12635;50.852;5.676;2023-06-10T10:39:07;35.40;99.90
24470;DHT22;12635;50.852;5.676;2023-06-10T10:41:34;34.60;99.90
24470;DHT22;12635;50.852;5.676;2023-06-10T10:44:03;33.20;99.90
24470;DHT22;12635;50.852;5.676;2023-06-10T10:46:42;33.00;99.90
24470;DHT22;12635;50.852;5.676;2023-06-10T10:49:10;33.90;99.90
24470;DHT22;12635;50.852;5.676;2023-06-10T10:51:38;34.30;99.90
24470;DHT22;12635;50.852;5.676;2023-06-10T10:54:21;33.60;99.90
24470;DHT22;12635;50.852;5.676;2023-06-10T10:57:09;32.40;99.90
24470;DHT22;12635;50.852;5.676;2023-06-10T10:59:50;32.20;99.90
24470;DHT22;12635;50.852;5.676;2023-06-10T11:02:32;33.20;99.90
24470;DHT22;12635;50.852;5.676;2023-06-10T11:04:59;33.40;99.90
24470;DHT22;12635;50.852;5.676;2023-06-10T11:07:27;33.80;99.90
24470;DHT22;12635;50.852;5.676;2023-06-10T11:09:58;34.00;99.90
24470;DHT22;12635;50.852;5.676;2023-06-10T11:12:26;33.90;99.90
24470;DHT22;12635;50.852;5.676;2023-06-10T11:15:05;34.80;99.90
24470;DHT22;12635;50.852;5.676;2023-06-10T11:17:34;34.90;99.90
24470;DHT22;12635;50.852;5.676;2023-06-10T11:20:01;34.60;99.90
24470;DHT22;12635;50.852;5.676;2023-06-10T11:22:28;35.10;99.90
24470;DHT22;12635;50.852;5.676;2023-06-10T11:24:55;35.50;99.90
24470;DHT22;12635;50.852;5.676;2023-06-10T11:27:24;34.90;99.90
24470;DHT22;12635;50.852;5.676;2023-06-10T11:29:58;35.60;99.90
24470;DHT22;12635;50.852;5.676;2023-06-10T11:32:25;34.60;99.90
24470;DHT22;12635;50.852;5.676;2023-06-10T11:34:57;34.80;99.90
24470;DHT22;12635;50.852;5.676;2023-06-10T11:37:24;34.50;99.90
24470;DHT22;12635;50.852;5.676;2023-06-10T11:39:54;35.10;99.90
24470;DHT22;12635;50.852;5.676;2023-06-10T11:42:21;35.20;99.90
24470;DHT22;12635;50.852;5.676;2023-06-10T11:44:48;35.40;99.90
24470;DHT22;12635;50.852;5.676;2023-06-10T11:47:15;34.50;99.90
24470;DHT22;12635;50.852;5.676;2023-06-10T11:49:42;33.90;99.90
24470;DHT22;12635;50.852;5.676;2023-06-10T11:52:10;33.50;99.90
24470;DHT22;12635;50.852;5.676;2023-06-10T11:54:37;33.60;99.90
24470;DHT22;12635;50.852;5.676;2023-06-10T11:57:04;34.20;99.90
24470;DHT22;12635;50.852;5.676;2023-06-10T11:59:33;33.80;99.90
24470;DHT22;12635;50.852;5.676;2023-06-10T12:02:00;34.00;99.90
24470;DHT22;12635;50.852;5.676;2023-06-10T12:04:27;33.90;99.90
24470;DHT22;12635;50.852;5.676;2023-06-10T12:06:54;34.60;99.90
24470;DHT22;12635;50.852;5.676;2023-06-10T12:09:24;34.70;99.90
24470;DHT22;12635;50.852;5.676;2023-06-10T12:11:51;34.60;99.90
24470;DHT22;12635;50.852;5.676;2023-06-10T12:17:04;33.80;99.90
24470;DHT22;12635;50.852;5.676;2023-06-10T12:19:31;33.70;99.90
24470;DHT22;12635;50.852;5.676;2023-06-10T12:22:00;34.10;99.90
24470;DHT22;12635;50.852;5.676;2023-06-10T12:24:29;34.20;99.90
24470;DHT22;12635;50.852;5.676;2023-06-10T12:26:55;34.60;99.90
24470;DHT22;12635;50.852;5.676;2023-06-10T12:29:23;34.90;99.90
24470;DHT22;12635;50.852;5.676;2023-06-10T12:31:58;34.60;99.90
24470;DHT22;12635;50.852;5.676;2023-06-10T12:34:32;34.70;99.30
24470;DHT22;12635;50.852;5.676;2023-06-10T12:36:59;34.90;99.90
24470;DHT22;12635;50.852;5.676;2023-06-10T12:39:26;34.20;98.60
24470;DHT22;12635;50.852;5.676;2023-06-10T12:41:55;34.10;99.90
24470;DHT22;12635;50.852;5.676;2023-06-10T12:44:28;34.00;99.90
24470;DHT22;12635;50.852;5.676;2023-06-10T12:46:55;33.20;99.90
24470;DHT22;12635;50.852;5.676;2023-06-10T12:49:22;33.10;99.90
24470;DHT22;12635;50.852;5.676;2023-06-10T12:51:49;33.00;99.90
24470;DHT22;12635;50.852;5.676;2023-06-10T12:54:16;33.60;99.90
24470;DHT22;12635;50.852;5.676;2023-06-10T12:56:43;34.40;99.90
24470;DHT22;12635;50.852;5.676;2023-06-10T12:59:11;34.80;99.60
24470;DHT22;12635;50.852;5.676;2023-06-10T13:01:38;34.40;99.90
24470;DHT22;12635;50.852;5.676;2023-06-10T13:04:05;34.50;99.90
24470;DHT22;12635;50.852;5.676;2023-06-10T13:06:33;34.70;99.90
24470;DHT22;12635;50.852;5.676;2023-06-10T13:09:02;35.40;99.70
24470;DHT22;12635;50.852;5.676;2023-06-10T13:11:31;35.30;99.90
24470;DHT22;12635;50.852;5.676;2023-06-10T13:13:58;35.10;99.50
24470;DHT22;12635;50.852;5.676;2023-06-10T13:16:26;35.30;99.90
24470;DHT22;12635;50.852;5.676;2023-06-10T13:18:54;35.00;96.10
24470;DHT22;12635;50.852;5.676;2023-06-10T13:21:21;34.30;97.40
24470;DHT22;12635;50.852;5.676;2023-06-10T13:23:47;34.10;96.60
24470;DHT22;12635;50.852;5.676;2023-06-10T13:26:15;34.10;99.90
24470;DHT22;12635;50.852;5.676;2023-06-10T13:28:42;34.20;99.90
24470;DHT22;12635;50.852;5.676;2023-06-10T13:31:09;34.80;96.60
24470;DHT22;12635;50.852;5.676;2023-06-10T13:33:38;35.00;96.90
24470;DHT22;12635;50.852;5.676;2023-06-10T13:36:05;35.20;96.90
24470;DHT22;12635;50.852;5.676;2023-06-10T13:38:32;35.10;97.80
24470;DHT22;12635;50.852;5.676;2023-06-10T13:40:59;35.50;97.00
24470;DHT22;12635;50.852;5.676;2023-06-10T13:43:26;35.60;99.60
24470;DHT22;12635;50.852;5.676;2023-06-10T13:45:54;36.30;96.20
24470;DHT22;12635;50.852;5.676;2023-06-10T13:48:21;35.60;97.70
24470;DHT22;12635;50.852;5.676;2023-06-10T13:50:49;35.50;97.90
24470;DHT22;12635;50.852;5.676;2023-06-10T13:53:16;35.70;98.70
24470;DHT22;12635;50.852;5.676;2023-06-10T13:55:43;34.10;99.10
24470;DHT22;12635;50.852;5.676;2023-06-10T13:58:09;34.00;98.90
24470;DHT22;12635;50.852;5.676;2023-06-10T14:00:36;33.90;98.60
24470;DHT22;12635;50.852;5.676;2023-06-10T14:03:03;34.30;96.40
24470;DHT22;12635;50.852;5.676;2023-06-10T14:05:30;34.70;95.90
24470;DHT22;12635;50.852;5.676;2023-06-10T14:07:59;35.00;96.20
24470;DHT22;12635;50.852;5.676;2023-06-10T14:10:26;35.30;96.40
24470;DHT22;12635;50.852;5.676;2023-06-10T14:12:53;35.40;98.60
24470;DHT22;12635;50.852;5.676;2023-06-10T14:15:20;35.60;97.10
24470;DHT22;12635;50.852;5.676;2023-06-10T14:17:47;35.70;98.10
24470;DHT22;12635;50.852;5.676;2023-06-10T14:20:14;35.80;98.00
24470;DHT22;12635;50.852;5.676;2023-06-10T14:22:41;35.60;99.90
24470;DHT22;12635;50.852;5.676;2023-06-10T14:25:09;35.60;98.70
24470;DHT22;12635;50.852;5.676;2023-06-10T14:27:36;35.90;98.30
24470;DHT22;12635;50.852;5.676;2023-06-10T14:30:03;36.50;98.90
24470;DHT22;12635;50.852;5.676;2023-06-10T14:32:31;36.70;99.30
24470;DHT22;12635;50.852;5.676;2023-06-10T14:34:57;36.80;96.90
24470;DHT22;12635;50.852;5.676;2023-06-10T14:37:24;36.80;98.00
24470;DHT22;12635;50.852;5.676;2023-06-10T14:39:51;36.10;99.50
24470;DHT22;12635;50.852;5.676;2023-06-10T14:42:19;35.10;98.90
24470;DHT22;12635;50.852;5.676;2023-06-10T14:44:46;34.10;99.60
24470;DHT22;12635;50.852;5.676;2023-06-10T14:47:13;34.20;99.90
24470;DHT22;12635;50.852;5.676;2023-06-10T14:49:40;34.10;99.90
24470;DHT22;12635;50.852;5.676;2023-06-10T14:52:09;34.00;99.30
24470;DHT22;12635;50.852;5.676;2023-06-10T14:54:36;33.00;99.90
24470;DHT22;12635;50.852;5.676;2023-06-10T14:57:03;33.30;99.90
24470;DHT22;12635;50.852;5.676;2023-06-10T14:59:32;33.70;99.90
24470;DHT22;12635;50.852;5.676;2023-06-10T15:01:59;34.50;99.90
24470;DHT22;12635;50.852;5.676;2023-06-10T15:04:26;35.20;99.90
24470;DHT22;12635;50.852;5.676;2023-06-10T15:06:53;34.20;99.90
24470;DHT22;12635;50.852;5.676;2023-06-10T15:09:20;33.70;99.90
24470;DHT22;12635;50.852;5.676;2023-06-10T15:11:47;33.30;99.90
24470;DHT22;12635;50.852;5.676;2023-06-10T15:14:14;33.60;99.90
24470;DHT22;12635;50.852;5.676;2023-06-10T15:16:42;32.80;99.90
24470;DHT22;12635;50.852;5.676;2023-06-10T15:19:09;33.10;99.90
24470;DHT22;12635;50.852;5.676;2023-06-10T15:21:36;34.00;99.90
24470;DHT22;12635;50.852;5.676;2023-06-10T15:24:03;34.60;99.90
24470;DHT22;12635;50.852;5.676;2023-06-10T15:26:30;34.60;98.30
24470;DHT22;12635;50.852;5.676;2023-06-10T15:28:57;34.10;99.70
24470;DHT22;12635;50.852;5.676;2023-06-10T15:31:29;33.80;99.20
24470;DHT22;12635;50.852;5.676;2023-06-10T15:33:58;34.60;98.80
24470;DHT22;12635;50.852;5.676;2023-06-10T15:36:25;34.40;97.40